Time;durP1;ratioP1;P1;durP2;ratioP2;P2;SDS_P1;SDS_P2;PMS_P1;PMS_P2;Temp;Humidity;BMP_temperature;BMP_pressure;BME280_temperature;BME280_humidity;BME280_pressure;Samples;Min_cycle;Max_cycle;Signal;HPM_P1;HPM_P2
2023/05/12 00:02:08;;;;;;;6.30;4.70;;;10.60;99.90;;;;;;5014606;28;20052;-80
2023/05/12 00:04:34;;;;;;;7.18;5.15;;;10.60;99.90;;;;;;5017507;28;20026;-80
2023/05/12 00:07:00;;;;;;;7.45;5.50;;;10.60;99.90;;;;;;5015327;28;20037;-80
2023/05/12 00:09:26;;;;;;;8.82;5.30;;;10.60;99.90;;;;;;5016370;28;20591;-80
2023/05/12 00:11:52;;;;;;;9.35;5.75;;;10.60;99.90;;;;;;5018273;28;20044;-80
2023/05/12 00:14:18;;;;;;;6.90;5.15;;;10.60;99.90;;;;;;5011764;28;20101;-80
2023/05/12 00:16:46;;;;;;;7.57;5.15;;;10.50;99.90;;;;;;5016018;28;20517;-80
2023/05/12 00:19:11;;;;;;;5.43;4.73;;;10.60;99.90;;;;;;5015644;28;20094;-80
2023/05/12 00:21:37;;;;;;;6.68;5.20;;;10.60;99.90;;;;;;5015223;28;20057;-80
2023/05/12 00:24:04;;;;;;;6.32;4.93;;;10.60;99.90;;;;;;5018746;28;20041;-80
2023/05/12 00:26:29;;;;;;;6.30;4.90;;;10.60;99.90;;;;;;5019514;28;20034;-80
2023/05/12 00:28:55;;;;;;;7.28;4.85;;;10.60;99.90;;;;;;5017582;28;20042;-80
2023/05/12 00:31:20;;;;;;;6.50;4.85;;;10.60;99.90;;;;;;5014017;28;20494;-80
2023/05/12 00:33:46;;;;;;;6.18;4.18;;;10.60;99.90;;;;;;5019709;28;20045;-80
2023/05/12 00:36:12;;;;;;;6.18;4.50;;;10.60;99.90;;;;;;5015295;28;20037;-80
2023/05/12 00:38:37;;;;;;;6.68;5.20;;;10.60;99.90;;;;;;5011874;28;20042;-81
2023/05/12 00:41:03;;;;;;;5.45;3.92;;;10.50;99.90;;;;;;5013130;28;20052;-79
2023/05/12 00:43:30;;;;;;;8.25;4.50;;;10.40;99.90;;;;;;5013088;28;20042;-79
2023/05/12 00:45:55;;;;;;;6.13;4.35;;;10.40;99.90;;;;;;5015511;28;20431;-79
2023/05/12 00:48:22;;;;;;;7.15;4.47;;;10.40;99.90;;;;;;5017988;28;20068;-79
2023/05/12 00:50:47;;;;;;;6.43;4.18;;;10.40;99.90;;;;;;5015916;28;20092;-79
2023/05/12 00:53:13;;;;;;;7.13;4.32;;;10.40;99.90;;;;;;5017536;28;21838;-79
2023/05/12 00:55:39;;;;;;;7.35;4.70;;;10.40;99.90;;;;;;5013861;28;20033;-80
2023/05/12 00:58:04;;;;;;;7.10;4.78;;;10.40;99.90;;;;;;5018685;28;20052;-80
2023/05/12 01:00:30;;;;;;;8.50;5.00;;;10.40;99.90;;;;;;5013543;28;20014;-77
2023/05/12 01:02:57;;;;;;;8.32;5.35;;;10.40;99.90;;;;;;5015120;28;20068;-78
2023/05/12 01:05:29;;;;;;;8.32;5.00;;;10.40;99.90;;;;;;5015257;28;20482;-78
2023/05/12 01:07:55;;;;;;;6.80;5.25;;;10.30;99.90;;;;;;5010371;28;20137;-78
2023/05/12 01:10:21;;;;;;;7.30;4.97;;;10.30;99.90;;;;;;5011764;28;20040;-78
2023/05/12 01:12:47;;;;;;;6.72;5.03;;;10.30;99.90;;;;;;5013197;28;20037;-78
2023/05/12 01:15:13;;;;;;;6.85;4.90;;;10.20;99.90;;;;;;5010751;28;21583;-77
2023/05/12 01:17:44;;;;;;;7.63;5.60;;;10.20;99.90;;;;;;5011481;28;20045;-78
2023/05/12 01:20:12;;;;;;;7.28;5.47;;;10.30;99.90;;;;;;5014625;28;20041;-78
2023/05/12 01:22:38;;;;;;;8.57;5.45;;;10.30;99.90;;;;;;5016065;28;20053;-78
2023/05/12 01:25:08;;;;;;;7.30;5.07;;;10.30;99.90;;;;;;5017985;28;20061;-78
2023/05/12 01:27:34;;;;;;;7.75;5.05;;;10.20;99.90;;;;;;5015087;28;20041;-78
2023/05/12 01:30:03;;;;;;;7.55;5.15;;;10.30;99.90;;;;;;5014447;28;20030;-78
2023/05/12 01:32:29;;;;;;;8.05;5.35;;;10.20;99.90;;;;;;5016108;28;20060;-78
2023/05/12 01:34:55;;;;;;;9.13;5.80;;;10.20;99.90;;;;;;5013934;28;20033;-78
2023/05/12 01:37:20;;;;;;;5.40;4.30;;;10.10;99.90;;;;;;5013416;28;20122;-78
2023/05/12 01:39:46;;;;;;;4.47;3.75;;;10.10;99.90;;;;;;5013866;28;20034;-78
2023/05/12 01:42:12;;;;;;;5.55;3.90;;;10.10;99.90;;;;;;5017530;28;20042;-79
2023/05/12 01:44:37;;;;;;;4.45;3.50;;;10.10;99.90;;;;;;5018102;28;20021;-78
2023/05/12 01:47:03;;;;;;;6.25;3.78;;;10.10;99.90;;;;;;5014600;28;20040;-78
2023/05/12 01:49:29;;;;;;;4.85;3.80;;;10.00;99.90;;;;;;5017424;28;20046;-79
2023/05/12 01:51:55;;;;;;;4.32;3.65;;;10.00;99.90;;;;;;5015333;28;20029;-78
2023/05/12 01:54:20;;;;;;;4.68;4.07;;;10.10;99.90;;;;;;5012965;28;20033;-78
2023/05/12 01:56:46;;;;;;;6.65;4.38;;;10.00;99.90;;;;;;5012874;28;20097;-78
2023/05/12 01:59:11;;;;;;;7.00;4.78;;;10.00;99.90;;;;;;5011437;28;20034;-78
2023/05/12 02:01:37;;;;;;;7.38;4.80;;;10.00;99.90;;;;;;5011158;28;20050;-78
2023/05/12 02:04:03;;;;;;;8.70;4.95;;;10.10;99.90;;;;;;5009445;28;20034;-78
2023/05/12 02:06:30;;;;;;;7.45;5.75;;;10.10;99.90;;;;;;5016438;28;20032;-78
2023/05/12 02:08:56;;;;;;;8.55;5.40;;;10.10;99.90;;;;;;5015432;28;20045;-78
2023/05/12 02:11:22;;;;;;;8.73;5.22;;;10.10;99.90;;;;;;5012225;28;20049;-78
2023/05/12 02:13:47;;;;;;;12.43;6.03;;;10.10;99.90;;;;;;5014743;28;20029;-78
2023/05/12 02:16:13;;;;;;;9.25;5.28;;;10.10;99.90;;;;;;5014864;28;20026;-78
2023/05/12 02:18:39;;;;;;;10.25;5.63;;;10.20;99.90;;;;;;5018650;28;20045;-78
2023/05/12 02:21:05;;;;;;;11.75;6.75;;;10.20;99.90;;;;;;5014734;28;20029;-78
2023/05/12 02:23:30;;;;;;;13.50;6.47;;;10.20;99.90;;;;;;5017092;28;20038;-78
2023/05/12 02:25:56;;;;;;;15.30;7.60;;;10.20;99.90;;;;;;5030336;28;20076;-78
2023/05/12 02:28:22;;;;;;;9.38;5.82;;;10.20;99.90;;;;;;5011102;28;20042;-78
2023/05/12 02:30:49;;;;;;;10.23;5.75;;;10.20;99.90;;;;;;5014477;28;20479;-78
2023/05/12 02:33:16;;;;;;;9.57;5.97;;;10.20;99.90;;;;;;5010029;28;20092;-78
2023/05/12 02:35:43;;;;;;;10.25;6.25;;;10.20;99.90;;;;;;5016994;28;20471;-79
2023/05/12 02:38:09;;;;;;;10.45;5.95;;;10.20;99.90;;;;;;5016101;28;20045;-78
2023/05/12 02:40:35;;;;;;;10.50;6.28;;;10.20;99.90;;;;;;5013666;28;20030;-79
2023/05/12 02:43:00;;;;;;;9.95;6.32;;;10.20;99.90;;;;;;5014598;28;20026;-78
2023/05/12 02:45:26;;;;;;;9.82;6.10;;;10.10;99.90;;;;;;5015185;28;20029;-78
2023/05/12 02:47:52;;;;;;;8.85;5.78;;;10.10;99.90;;;;;;5015875;28;20034;-78
2023/05/12 02:50:18;;;;;;;9.02;5.63;;;10.10;99.90;;;;;;5016144;28;20050;-78
2023/05/12 02:52:43;;;;;;;12.70;6.88;;;10.10;99.90;;;;;;5013389;28;20046;-78
2023/05/12 02:55:09;;;;;;;10.10;5.88;;;10.10;99.90;;;;;;5016083;28;20034;-78
2023/05/12 02:57:34;;;;;;;10.93;6.80;;;10.10;99.90;;;;;;5016011;28;20037;-78
2023/05/12 03:00:03;;;;;;;11.43;6.60;;;10.10;99.90;;;;;;5016873;28;20047;-78
2023/05/12 03:02:29;;;;;;;12.05;7.50;;;10.10;99.90;;;;;;5013971;28;20065;-78
2023/05/12 03:04:54;;;;;;;11.32;6.55;;;10.20;99.90;;;;;;5012844;28;20062;-78
2023/05/12 03:07:20;;;;;;;10.18;6.20;;;10.20;99.90;;;;;;5008958;28;20441;-77
2023/05/12 03:09:46;;;;;;;12.10;7.35;;;10.20;99.90;;;;;;5007790;28;20084;-77
2023/05/12 03:12:12;;;;;;;12.13;6.68;;;10.20;99.90;;;;;;5016614;28;20033;-78
2023/05/12 03:14:37;;;;;;;10.88;6.57;;;10.20;99.90;;;;;;5015245;28;20048;-78
2023/05/12 03:17:03;;;;;;;10.93;7.00;;;10.30;99.90;;;;;;5016146;28;20041;-78
2023/05/12 03:19:29;;;;;;;11.52;6.25;;;10.30;99.90;;;;;;5012926;28;20022;-78
2023/05/12 03:21:55;;;;;;;11.45;6.40;;;10.30;99.90;;;;;;5013188;28;20321;-78
2023/05/12 03:24:20;;;;;;;10.73;6.68;;;10.20;99.90;;;;;;5015491;28;20037;-78
2023/05/12 03:26:46;;;;;;;10.93;6.13;;;10.20;99.90;;;;;;5014712;28;20049;-78
2023/05/12 03:29:12;;;;;;;12.48;6.93;;;10.20;99.90;;;;;;5015231;28;20544;-78
2023/05/12 03:31:38;;;;;;;11.15;6.35;;;10.30;99.90;;;;;;5012179;28;20038;-78
2023/05/12 03:34:03;;;;;;;12.75;6.40;;;10.20;99.90;;;;;;5017872;28;20034;-78
2023/05/12 03:36:29;;;;;;;11.52;6.72;;;10.30;99.90;;;;;;5019372;28;20040;-77
2023/05/12 03:38:55;;;;;;;15.82;7.50;;;10.30;99.90;;;;;;5017872;28;20042;-78
2023/05/12 03:41:20;;;;;;;10.98;6.65;;;10.30;99.90;;;;;;5016331;28;20030;-79
2023/05/12 03:43:46;;;;;;;12.65;7.25;;;10.30;99.90;;;;;;5015382;28;20041;-77
2023/05/12 03:46:12;;;;;;;12.88;7.20;;;10.30;99.90;;;;;;5015627;28;20036;-78
2023/05/12 03:48:57;;;;;;;11.73;6.97;;;10.30;99.90;;;;;;5015986;28;20066;-78
2023/05/12 03:51:23;;;;;;;13.02;7.80;;;10.30;99.90;;;;;;5009576;28;20033;-79
2023/05/12 03:53:49;;;;;;;12.23;6.70;;;10.30;99.90;;;;;;5015016;28;20030;-79
2023/05/12 03:56:15;;;;;;;15.40;8.23;;;10.30;99.90;;;;;;5015746;28;20700;-78
2023/05/12 03:58:41;;;;;;;18.00;7.50;;;10.30;99.90;;;;;;5015550;28;20046;-78
2023/05/12 04:01:07;;;;;;;13.07;7.07;;;10.30;99.90;;;;;;5016494;28;20056;-78
2023/05/12 04:03:33;;;;;;;11.60;7.10;;;10.30;99.90;;;;;;5016465;28;20063;-78
2023/05/12 04:06:03;;;;;;;12.35;7.35;;;10.20;99.90;;;;;;5013600;28;20040;-77
2023/05/12 04:08:29;;;;;;;10.10;6.65;;;10.20;99.90;;;;;;5018813;28;20460;-78
2023/05/12 04:10:59;;;;;;;12.40;6.63;;;10.20;99.90;;;;;;5016278;28;20060;-78
2023/05/12 04:13:25;;;;;;;11.15;6.30;;;10.20;99.90;;;;;;5017461;28;20094;-78
2023/05/12 04:15:54;;;;;;;12.82;6.63;;;10.20;99.90;;;;;;5015310;28;20069;-78
2023/05/12 04:18:20;;;;;;;11.25;6.13;;;10.20;99.90;;;;;;5013265;28;20046;-78
2023/05/12 04:20:45;;;;;;;9.93;6.53;;;10.30;99.90;;;;;;5014982;28;20030;-78
2023/05/12 04:23:11;;;;;;;9.45;5.55;;;10.20;99.90;;;;;;5017634;28;20028;-77
2023/05/12 04:25:40;;;;;;;11.85;6.45;;;10.30;99.90;;;;;;5015955;28;20045;-78
2023/05/12 04:28:07;;;;;;;12.15;6.65;;;10.30;99.90;;;;;;5014967;28;20033;-78
2023/05/12 04:30:33;;;;;;;12.65;6.95;;;10.30;99.90;;;;;;5018145;28;20093;-78
2023/05/12 04:32:58;;;;;;;14.57;7.68;;;10.30;99.90;;;;;;5016626;28;20061;-78
2023/05/12 04:35:24;;;;;;;17.20;8.88;;;10.30;99.90;;;;;;5011097;28;20041;-78
2023/05/12 04:37:50;;;;;;;16.17;8.05;;;10.30;99.90;;;;;;5010921;28;20037;-78
2023/05/12 04:40:15;;;;;;;16.80;7.63;;;10.30;99.90;;;;;;5017089;28;20061;-79
2023/05/12 04:42:41;;;;;;;13.85;7.43;;;10.30;99.90;;;;;;5012769;28;20044;-80
2023/05/12 04:45:07;;;;;;;13.63;7.32;;;10.30;99.90;;;;;;5013625;28;20466;-78
2023/05/12 04:47:33;;;;;;;13.77;8.30;;;10.30;99.90;;;;;;5009684;28;20030;-79
2023/05/12 04:49:59;;;;;;;17.63;7.85;;;10.40;99.90;;;;;;5013461;28;20050;-80
2023/05/12 04:52:24;;;;;;;16.25;8.50;;;10.40;99.90;;;;;;5013364;28;20034;-79
2023/05/12 04:54:50;;;;;;;14.65;8.18;;;10.40;99.90;;;;;;5013616;28;20072;-79
2023/05/12 04:57:16;;;;;;;15.18;8.18;;;10.40;99.90;;;;;;5016794;28;20089;-78
2023/05/12 04:59:42;;;;;;;12.20;6.95;;;10.40;99.90;;;;;;5014352;28;20037;-80
2023/05/12 05:02:11;;;;;;;14.65;7.68;;;10.50;99.90;;;;;;5012980;28;20050;-79
2023/05/12 05:04:37;;;;;;;14.32;7.85;;;10.50;99.90;;;;;;5012499;28;20069;-79
2023/05/12 05:07:03;;;;;;;12.40;7.47;;;10.60;99.90;;;;;;5012348;28;20029;-79
2023/05/12 05:09:29;;;;;;;13.82;7.75;;;10.60;99.90;;;;;;5012109;28;20038;-79
2023/05/12 05:11:54;;;;;;;15.10;8.30;;;10.60;99.90;;;;;;5008898;28;20038;-79
2023/05/12 05:14:20;;;;;;;15.90;7.85;;;10.70;99.90;;;;;;5011415;28;20030;-79
2023/05/12 05:16:47;;;;;;;16.80;8.73;;;10.70;99.90;;;;;;5013739;28;20604;-78
2023/05/12 05:19:13;;;;;;;14.68;7.63;;;10.70;99.90;;;;;;5013207;28;20101;-79
2023/05/12 05:21:38;;;;;;;14.60;7.80;;;10.70;99.90;;;;;;5013608;28;20081;-79
2023/05/12 05:24:04;;;;;;;14.82;8.23;;;10.80;99.90;;;;;;5014768;28;20045;-79
2023/05/12 05:26:30;;;;;;;15.13;7.90;;;10.70;99.90;;;;;;5009013;28;20068;-79
2023/05/12 05:28:56;;;;;;;12.13;7.50;;;10.80;99.90;;;;;;5016600;28;20065;-79
2023/05/12 05:31:22;;;;;;;12.18;7.22;;;10.80;99.90;;;;;;5011616;28;20042;-80
2023/05/12 05:33:47;;;;;;;14.60;7.22;;;10.70;99.90;;;;;;5012795;28;20474;-79
2023/05/12 05:36:13;;;;;;;13.30;7.55;;;10.80;99.90;;;;;;5013721;28;20048;-80
2023/05/12 05:38:39;;;;;;;11.85;7.07;;;10.80;99.90;;;;;;5015994;28;20095;-77
2023/05/12 05:41:05;;;;;;;11.55;7.07;;;10.80;99.90;;;;;;5011083;28;20083;-79
2023/05/12 05:43:31;;;;;;;13.70;7.03;;;10.80;99.90;;;;;;5015463;28;20061;-79
2023/05/12 05:45:57;;;;;;;11.75;7.18;;;10.80;99.90;;;;;;5011628;28;20029;-79
2023/05/12 05:48:23;;;;;;;14.23;7.85;;;10.80;99.90;;;;;;5014707;28;20053;-80
2023/05/12 05:50:52;;;;;;;12.02;6.95;;;10.70;99.90;;;;;;5012594;28;20037;-79
2023/05/12 05:53:19;;;;;;;14.70;7.68;;;10.70;99.90;;;;;;5012708;28;20486;-80
2023/05/12 05:55:45;;;;;;;12.93;6.38;;;10.80;99.90;;;;;;5007977;28;20037;-80
2023/05/12 05:58:11;;;;;;;11.80;6.13;;;10.90;99.90;;;;;;5007526;28;20038;-77
2023/05/12 06:00:36;;;;;;;13.77;7.22;;;10.90;99.90;;;;;;5013560;28;20575;-77
2023/05/12 06:03:02;;;;;;;10.63;6.63;;;11.00;99.90;;;;;;5010548;28;20084;-77
2023/05/12 06:05:28;;;;;;;11.73;6.85;;;10.90;99.90;;;;;;5014872;28;20029;-77
2023/05/12 06:07:54;;;;;;;11.43;7.00;;;11.00;99.90;;;;;;5015396;28;20560;-77
2023/05/12 06:10:19;;;;;;;11.57;7.20;;;11.10;99.90;;;;;;5016396;28;20107;-77
2023/05/12 06:12:45;;;;;;;11.52;6.25;;;11.20;99.90;;;;;;5015046;28;20038;-78
2023/05/12 06:15:11;;;;;;;10.13;5.75;;;11.20;99.90;;;;;;5011274;28;20130;-77
2023/05/12 06:17:37;;;;;;;11.80;6.35;;;11.20;99.90;;;;;;5015407;28;20435;-77
2023/05/12 06:20:04;;;;;;;10.27;5.40;;;11.30;99.90;;;;;;5013811;28;20026;-77
2023/05/12 06:22:30;;;;;;;9.70;5.60;;;11.40;99.90;;;;;;5011583;28;20033;-77
2023/05/12 06:24:55;;;;;;;9.80;5.38;;;11.40;99.90;;;;;;5008770;28;20040;-78
2023/05/12 06:27:21;;;;;;;6.53;4.28;;;11.30;99.90;;;;;;5010328;28;20117;-77
2023/05/12 06:29:47;;;;;;;8.55;5.65;;;11.10;99.90;;;;;;5012221;28;20101;-76
2023/05/12 06:32:12;;;;;;;8.10;4.70;;;11.10;99.90;;;;;;5011612;28;20041;-77
2023/05/12 06:34:38;;;;;;;7.28;4.40;;;11.10;99.90;;;;;;5014158;28;20117;-77
2023/05/12 06:37:04;;;;;;;6.55;4.68;;;11.00;99.90;;;;;;5009605;28;20034;-76
2023/05/12 06:39:29;;;;;;;6.68;4.30;;;11.00;99.90;;;;;;5011014;28;20042;-76
2023/05/12 06:41:55;;;;;;;5.80;3.70;;;11.00;99.90;;;;;;5010252;28;20057;-77
2023/05/12 06:44:20;;;;;;;6.82;4.05;;;11.10;99.90;;;;;;5009773;28;20046;-77
2023/05/12 06:46:46;;;;;;;5.93;3.70;;;11.20;99.90;;;;;;5012523;28;20042;-77
2023/05/12 06:49:11;;;;;;;5.53;3.53;;;11.30;99.90;;;;;;5013214;28;20050;-77
2023/05/12 06:51:37;;;;;;;6.90;4.05;;;11.30;99.90;;;;;;5009558;28;20603;-77
2023/05/12 06:54:02;;;;;;;5.85;3.80;;;11.20;99.90;;;;;;5011995;28;20111;-77
2023/05/12 06:56:28;;;;;;;4.60;2.97;;;11.20;99.90;;;;;;5012570;28;20029;-77
2023/05/12 06:58:59;;;;;;;4.97;3.15;;;11.20;99.90;;;;;;5012100;28;20042;-77
2023/05/12 07:01:26;;;;;;;6.22;4.75;;;11.40;99.90;;;;;;5011731;28;20048;-77
2023/05/12 07:03:52;;;;;;;8.30;3.70;;;11.40;99.90;;;;;;5017474;28;20034;-77
2023/05/12 07:06:18;;;;;;;5.03;3.50;;;11.40;99.90;;;;;;5016930;28;20092;-77
2023/05/12 07:08:43;;;;;;;5.30;4.13;;;11.50;99.90;;;;;;5015045;28;20038;-77
2023/05/12 07:11:09;;;;;;;5.35;3.63;;;11.60;99.90;;;;;;5017737;28;20041;-76
2023/05/12 07:13:35;;;;;;;5.25;3.53;;;11.70;99.90;;;;;;5018768;28;20049;-77
2023/05/12 07:16:01;;;;;;;4.90;3.70;;;11.60;99.90;;;;;;5016612;28;20033;-77
2023/05/12 07:18:26;;;;;;;4.60;3.42;;;11.60;99.90;;;;;;5029983;28;20033;-77
2023/05/12 07:20:52;;;;;;;5.10;3.70;;;11.60;99.90;;;;;;5019046;28;20040;-77
2023/05/12 07:23:18;;;;;;;5.07;3.97;;;11.70;99.90;;;;;;5016164;28;20089;-76
2023/05/12 07:25:44;;;;;;;4.72;3.35;;;11.70;99.90;;;;;;5016360;28;20037;-77
2023/05/12 07:28:10;;;;;;;3.80;2.90;;;11.70;99.90;;;;;;5016184;28;20038;-77
2023/05/12 07:30:36;;;;;;;3.53;3.05;;;11.90;99.90;;;;;;5011069;28;20040;-76
2023/05/12 07:33:02;;;;;;;3.45;2.75;;;12.10;99.90;;;;;;5015586;28;20052;-77
2023/05/12 07:35:27;;;;;;;4.35;3.33;;;12.30;99.90;;;;;;5015053;28;20033;-77
2023/05/12 07:37:53;;;;;;;5.28;3.60;;;12.30;99.90;;;;;;5015635;28;20093;-77
2023/05/12 07:40:18;;;;;;;5.82;3.67;;;12.40;99.90;;;;;;5015828;28;20030;-76
2023/05/12 07:42:44;;;;;;;4.75;3.55;;;12.40;99.90;;;;;;5016166;28;20065;-76
2023/05/12 07:45:10;;;;;;;4.05;3.20;;;12.50;99.90;;;;;;5013982;28;20042;-77
2023/05/12 07:47:35;;;;;;;4.57;2.45;;;12.60;99.90;;;;;;5017049;28;20041;-77
2023/05/12 07:50:01;;;;;;;3.33;2.03;;;12.40;99.90;;;;;;5021000;28;20049;-77
2023/05/12 07:52:27;;;;;;;4.82;3.60;;;12.30;99.90;;;;;;5015589;28;20057;-76
2023/05/12 07:54:56;;;;;;;5.03;3.58;;;12.40;99.90;;;;;;5018598;28;20084;-77
2023/05/12 07:57:22;;;;;;;4.30;3.85;;;12.30;99.90;;;;;;5011609;28;20029;-77
2023/05/12 07:59:48;;;;;;;4.57;3.50;;;12.30;99.90;;;;;;5013980;28;20068;-76
2023/05/12 08:02:15;;;;;;;4.43;3.17;;;12.20;99.90;;;;;;5010471;28;20133;-77
2023/05/12 08:04:41;;;;;;;4.05;3.05;;;12.30;99.90;;;;;;5017060;28;20034;-77
2023/05/12 08:07:07;;;;;;;3.83;2.45;;;12.40;99.90;;;;;;5016772;28;20053;-77
2023/05/12 08:09:33;;;;;;;3.53;2.58;;;12.50;99.90;;;;;;5015753;28;20030;-77
2023/05/12 08:11:58;;;;;;;5.00;2.92;;;12.60;99.90;;;;;;5015555;28;20038;-76
2023/05/12 08:14:24;;;;;;;3.58;2.53;;;12.60;99.90;;;;;;5016102;28;20155;-78
2023/05/12 08:16:50;;;;;;;3.13;2.47;;;12.70;99.90;;;;;;5012628;28;20053;-76
2023/05/12 08:19:16;;;;;;;2.90;2.28;;;12.80;99.90;;;;;;5014331;28;20033;-78
2023/05/12 08:21:41;;;;;;;2.85;2.35;;;12.90;99.90;;;;;;5013348;28;20053;-77
2023/05/12 08:24:07;;;;;;;3.72;2.55;;;12.80;99.90;;;;;;5016994;28;20034;-77
2023/05/12 08:26:33;;;;;;;4.82;3.00;;;12.70;99.90;;;;;;5013991;28;20033;-77
2023/05/12 08:28:58;;;;;;;4.25;2.80;;;12.80;99.90;;;;;;5014131;28;20045;-77
2023/05/12 08:31:24;;;;;;;3.22;2.63;;;12.70;99.90;;;;;;5015519;28;20501;-80
2023/05/12 08:33:49;;;;;;;4.10;3.00;;;12.70;99.90;;;;;;5009534;28;20034;-77
2023/05/12 08:36:15;;;;;;;4.78;2.80;;;12.60;99.90;;;;;;5013394;28;20030;-78
2023/05/12 08:38:41;;;;;;;3.05;2.50;;;12.50;99.90;;;;;;5011426;28;20037;-77
2023/05/12 08:41:18;;;;;;;3.78;2.80;;;12.70;99.90;;;;;;5013198;28;20022;-78
2023/05/12 08:43:54;;;;;;;3.67;2.70;;;12.90;99.90;;;;;;5013684;28;20045;-78
2023/05/12 08:46:20;;;;;;;4.80;2.92;;;12.70;99.90;;;;;;5010343;28;20034;-78
2023/05/12 08:48:49;;;;;;;3.35;2.50;;;12.60;99.90;;;;;;5017703;28;20053;-78
2023/05/12 08:51:14;;;;;;;;;;;12.50;99.90;;;;;;5014487;28;20066;-78
2023/05/12 08:53:41;;;;;;;4.15;3.03;;;12.40;99.90;;;;;;5013829;28;19913;-78
2023/05/12 08:56:09;;;;;;;3.83;2.97;;;12.30;99.90;;;;;;5012422;28;20052;-78
2023/05/12 08:58:36;;;;;;;3.58;2.92;;;12.30;99.90;;;;;;5015000;28;20088;-79
2023/05/12 09:01:06;;;;;;;3.38;2.85;;;12.30;99.90;;;;;;5014821;28;20038;-78
2023/05/12 09:03:34;;;;;;;4.70;3.22;;;12.30;99.90;;;;;;5013787;28;20032;-78
2023/05/12 09:06:00;;;;;;;5.05;2.92;;;12.20;99.90;;;;;;5009107;28;20057;-78
2023/05/12 09:08:28;;;;;;;4.70;2.95;;;12.20;99.90;;;;;;5015371;28;20129;-78
2023/05/12 09:10:57;;;;;;;4.17;3.13;;;12.10;99.90;;;;;;5017018;28;20057;-78
2023/05/12 09:13:42;;;;;;;4.07;3.08;;;12.10;99.90;;;;;;5004936;28;20048;-78
2023/05/12 09:16:11;;;;;;;5.07;3.22;;;12.10;99.90;;;;;;5013276;28;20513;-78
2023/05/12 09:18:57;;;;;;;5.18;3.78;;;12.10;99.90;;;;;;5016890;28;20029;-78
2023/05/12 09:21:23;;;;;;;7.70;4.22;;;12.10;99.90;;;;;;5012784;28;20057;-77
2023/05/12 09:23:57;;;;;;;5.50;4.28;;;12.10;99.90;;;;;;5012822;28;20076;-78
2023/05/12 09:26:25;;;;;;;5.88;4.05;;;12.10;99.90;;;;;;5013746;28;20038;-77
2023/05/12 09:28:53;;;;;;;6.28;3.92;;;12.30;99.90;;;;;;5012323;28;20037;-78
2023/05/12 09:31:21;;;;;;;7.97;4.50;;;12.40;99.90;;;;;;5013276;28;20088;-78
2023/05/12 09:33:48;;;;;;;7.47;4.70;;;12.50;99.90;;;;;;5007553;28;20786;-77
2023/05/12 09:36:21;;;;;;;5.80;4.57;;;12.60;99.90;;;;;;5014303;28;20024;-77
2023/05/12 09:39:03;;;;;;;6.80;4.38;;;12.80;99.90;;;;;;5016895;28;20085;-78
2023/05/12 09:41:29;;;;;;;5.85;4.35;;;12.70;99.90;;;;;;5015040;28;20033;-77
2023/05/12 09:43:55;;;;;;;6.50;3.90;;;12.50;99.90;;;;;;5015511;28;20020;-78
2023/05/12 09:46:21;;;;;;;2.85;2.45;;;12.40;99.90;;;;;;5013366;28;20113;-77
2023/05/12 09:48:47;;;;;;;3.38;2.60;;;12.50;99.90;;;;;;5013127;28;20057;-77
2023/05/12 09:51:17;;;;;;;3.17;2.20;;;12.50;99.90;;;;;;5011940;28;20088;-78
2023/05/12 09:53:43;;;;;;;2.85;2.15;;;12.50;99.90;;;;;;5012457;28;20036;-78
2023/05/12 09:56:12;;;;;;;4.00;2.40;;;12.50;99.90;;;;;;5008895;28;20350;-77
2023/05/12 09:58:42;;;;;;;3.78;2.63;;;12.50;99.90;;;;;;5012945;28;20053;-77
2023/05/12 10:01:13;;;;;;;3.88;3.05;;;12.60;99.90;;;;;;5015154;28;20072;-78
2023/05/12 10:04:00;;;;;;;4.85;3.25;;;12.50;99.90;;;;;;5011257;28;20126;-78
2023/05/12 10:06:41;;;;;;;4.20;3.20;;;12.40;99.90;;;;;;5008543;28;20038;-78
2023/05/12 10:09:22;;;;;;;5.00;3.75;;;12.30;99.90;;;;;;5011759;28;20073;-78
2023/05/12 10:11:50;;;;;;;5.15;4.15;;;12.30;99.90;;;;;;5010155;28;20033;-77
2023/05/12 10:14:16;;;;;;;5.30;3.65;;;12.30;99.90;;;;;;5004300;28;20061;-78
2023/05/12 10:16:45;;;;;;;5.75;3.20;;;12.20;99.90;;;;;;5010195;28;20030;-77
2023/05/12 10:19:12;;;;;;;5.85;4.35;;;12.20;99.90;;;;;;5011120;28;20022;-78
2023/05/12 10:21:39;;;;;;;4.23;2.80;;;12.10;99.90;;;;;;5012476;28;20041;-77
2023/05/12 10:24:05;;;;;;;1.77;1.58;;;12.00;99.90;;;;;;5013036;28;20540;-77
2023/05/12 10:26:32;;;;;;;1.88;1.65;;;12.00;99.90;;;;;;5012507;28;20066;-77
2023/05/12 10:28:58;;;;;;;2.40;1.90;;;12.00;99.90;;;;;;5012893;28;20449;-77
2023/05/12 10:31:26;;;;;;;1.98;1.88;;;12.00;99.90;;;;;;5012522;28;20066;-78
2023/05/12 10:33:59;;;;;;;1.55;1.42;;;12.10;99.90;;;;;;5009003;28;20030;-77
2023/05/12 10:36:25;;;;;;;1.55;1.45;;;12.10;99.90;;;;;;5013636;28;20545;-77
2023/05/12 10:38:51;;;;;;;2.72;2.00;;;12.10;99.90;;;;;;5014810;28;20084;-77
2023/05/12 10:41:31;;;;;;;1.80;1.70;;;12.10;99.90;;;;;;5016875;28;20494;-77
2023/05/12 10:43:57;;;;;;;2.05;1.80;;;12.10;99.90;;;;;;5025185;28;20563;-77
2023/05/12 10:46:25;;;;;;;2.10;1.40;;;12.10;99.90;;;;;;5016812;28;20026;-77
2023/05/12 10:49:22;;;;;;;1.75;1.63;;;12.10;99.90;;;;;;5013336;28;20054;-77
2023/05/12 10:51:48;;;;;;;1.98;1.50;;;12.20;99.90;;;;;;5011045;28;20076;-78
2023/05/12 10:54:24;;;;;;;1.70;1.50;;;12.20;99.90;;;;;;5013655;28;20029;-77
2023/05/12 10:56:51;;;;;;;1.60;1.50;;;12.20;99.90;;;;;;5014591;28;20092;-78
2023/05/12 10:59:22;;;;;;;1.77;1.67;;;12.20;99.90;;;;;;5011328;28;20065;-77
2023/05/12 11:01:59;;;;;;;1.95;1.65;;;12.30;99.90;;;;;;5012794;28;20081;-77
2023/05/12 11:04:56;;;;;;;2.40;2.08;;;12.30;99.90;;;;;;5006714;28;20409;-78
2023/05/12 11:07:28;;;;;;;3.17;2.42;;;12.30;99.90;;;;;;5003379;28;20033;-78
2023/05/12 11:09:56;;;;;;;3.95;2.65;;;12.30;99.90;;;;;;5016056;28;20049;-77
2023/05/12 11:12:22;;;;;;;2.50;2.30;;;12.30;99.90;;;;;;5013804;28;20042;-78
2023/05/12 11:14:48;;;;;;;2.67;2.30;;;12.50;99.90;;;;;;5009561;28;20086;-77
2023/05/12 11:17:14;;;;;;;2.20;2.00;;;12.50;99.90;;;;;;5013839;28;20026;-77
2023/05/12 11:19:46;;;;;;;2.50;2.15;;;12.50;99.90;;;;;;5007843;28;20037;-78
2023/05/12 11:22:12;;;;;;;2.10;1.90;;;12.60;99.90;;;;;;5010544;28;20033;-78
2023/05/12 11:24:40;;;;;;;2.42;1.60;;;12.70;99.90;;;;;;5010141;28;20120;-78
2023/05/12 11:27:10;;;;;;;3.13;2.30;;;12.70;99.90;;;;;;5015607;28;20022;-78
2023/05/12 11:29:38;;;;;;;4.07;2.20;;;12.70;99.90;;;;;;5014902;28;20033;-77
2023/05/12 11:32:04;;;;;;;2.83;2.20;;;12.80;99.90;;;;;;5011907;28;20113;-78
2023/05/12 11:34:30;;;;;;;3.15;2.47;;;12.90;99.90;;;;;;5008794;28;20030;-78
2023/05/12 11:36:56;;;;;;;2.60;2.10;;;13.10;99.90;;;;;;5009174;28;20026;-77
2023/05/12 11:39:26;;;;;;;2.45;1.95;;;13.10;99.90;;;;;;5014288;28;20370;-77
2023/05/12 11:41:52;;;;;;;2.33;2.05;;;13.00;99.90;;;;;;5013974;28;20030;-78
2023/05/12 11:44:19;;;;;;;2.53;1.90;;;13.20;99.90;;;;;;5011838;28;20109;-77
2023/05/12 11:47:10;;;;;;;2.17;2.00;;;13.40;99.90;;;;;;5029914;28;20030;-78
2023/05/12 11:49:53;;;;;;;2.92;2.20;;;13.50;99.90;;;;;;5017993;28;20041;-78
2023/05/12 11:52:20;;;;;;;2.35;2.10;;;13.50;99.90;;;;;;5013920;28;20050;-78
2023/05/12 11:54:50;;;;;;;2.40;2.20;;;13.30;99.90;;;;;;5017424;28;20029;-78
2023/05/12 11:57:34;;;;;;;2.83;2.28;;;13.00;99.90;;;;;;5015572;28;20034;-77
2023/05/12 12:00:08;;;;;;;2.13;1.90;;;12.90;99.90;;;;;;5014134;28;20029;-77
2023/05/12 12:02:36;;;;;;;2.85;2.00;;;12.90;99.90;;;;;;5015136;28;20034;-77
2023/05/12 12:05:02;;;;;;;2.20;2.00;;;12.90;99.90;;;;;;5012318;28;20108;-77
2023/05/12 12:07:29;;;;;;;3.17;2.20;;;12.90;99.90;;;;;;5016789;28;20490;-77
2023/05/12 12:09:54;;;;;;;4.65;2.25;;;13.00;99.90;;;;;;5031844;28;20044;-77
2023/05/12 12:12:20;;;;;;;2.85;2.15;;;13.00;99.90;;;;;;5015661;28;20041;-77
2023/05/12 12:14:46;;;;;;;3.10;2.10;;;13.00;99.90;;;;;;5016203;28;20038;-77
2023/05/12 12:17:11;;;;;;;4.57;2.22;;;12.80;99.90;;;;;;5013507;28;20026;-77
2023/05/12 12:19:37;;;;;;;2.40;2.13;;;12.70;99.90;;;;;;5010809;28;20056;-77
2023/05/12 12:22:03;;;;;;;2.35;2.15;;;12.60;99.90;;;;;;5005158;28;20057;-75
2023/05/12 12:24:32;;;;;;;2.40;2.20;;;12.70;99.90;;;;;;5011268;28;20025;-76
2023/05/12 12:26:58;;;;;;;2.45;2.13;;;12.80;99.90;;;;;;5023218;28;20072;-75
2023/05/12 12:29:25;;;;;;;2.45;2.20;;;12.90;99.90;;;;;;5001965;28;20605;-75
2023/05/12 12:31:50;;;;;;;2.50;1.83;;;12.90;99.90;;;;;;5020308;28;20045;-76
2023/05/12 12:34:16;;;;;;;3.15;1.85;;;13.00;99.90;;;;;;5010344;28;20041;-75
2023/05/12 12:36:42;;;;;;;2.53;2.13;;;13.10;99.90;;;;;;5009791;28;20108;-76
2023/05/12 12:39:09;;;;;;;3.70;2.33;;;13.20;99.90;;;;;;5012218;28;20038;-75
2023/05/12 12:41:35;;;;;;;3.25;2.33;;;13.20;99.90;;;;;;4996146;28;20034;-75
2023/05/12 12:44:00;;;;;;;5.15;2.85;;;13.30;99.90;;;;;;5015103;28;20063;-76